Monday, July 23, 2018, 11:33 AM GMT
Back to Local

CYGK, Kingston, Ont.

Location: , , Canada Lat: 44.217
Local Time: 11:33 AM GMT (11:33 GMT) Lon: -76.6
Time Zone: GMT Elev: 305 ft

Show me the last for .
Show Decoded

2018-07-23 11:00 METAR CYGK 231100Z 16008KT 15SM SCT030TCU BKN063 BKN250 24/22 A3001 RMK
                 TCU4SC2CI1 SH DIST NW-NE SLP163 DENSITY ALT 1300FT =
2018-07-23 10:25 METAR CYGK 231025Z 14008KT 15SM -SHRA SCT032TCU BKN090 BKN250 23/22 A3000 RMK
                 TCU3AC3CI1 SLP159 DENSITY ALT 1300FT =
2018-07-23 10:00 METAR CYGK 231000Z 09006KT 15SM FEW045 BKN100 BKN230 23/21 A2998 RMK SC1AC4CI2
                 SLP154 DENSITY ALT 1300FT =
2018-07-23 03:00 METAR CYGK 230300Z 10008KT 15SM BKN065 OVC120 24/21 A2997 RMK CU5AC3 LAST STFD
                 OBS/NEXT 231000 UTC SLP148 DENSITY ALT 1400FT =
2018-07-23 02:00 METAR CYGK 230200Z 07005KT 15SM FEW060 BKN100 BKN150 24/21 A2995 RMK CU2AC4AC1
                 SLP144 DENSITY ALT 1400FT =
2018-07-23 01:00 METAR CYGK 230100Z 08006KT 15SM BKN050TCU BKN100 BKN250 24/21 A2994 RMK
                 TCU5AC2CI1 CI TR SLP139 DENSITY ALT 1500FT =
2018-07-23 00:00 METAR CYGK 230000Z 05003KT 15SM VCSH FEW050CB BKN100 BKN250 25/20 A2991 RMK
                 CB2AC4CI1 CB NE-SE SLP130 DENSITY ALT 1600FT =
2018-07-22 23:00 METAR CYGK 222300Z 24004KT 15SM FEW040CB SCT100 SCT250 28/20 A2989 RMK CB2AC1CI1
                 CB E-S SLP122 DENSITY ALT 1900FT =
2018-07-22 22:00 METAR CYGK 222200Z 21010KT 15SM FEW040TCU SCT250 28/20 A2987 RMK TCU2CI1 TCU
                 NE-SE SLP117 DENSITY ALT 1900FT =
2018-07-22 21:00 METAR CYGK 222100Z 18007KT 15SM FEW041TCU SCT250 28/21 A2986 RMK TCU2CI2 TCU E
                 SLP113 DENSITY ALT 1900FT =
2018-07-22 20:00 METAR CYGK 222000Z 12004KT 060V140 15SM VCSH BKN040TCU BKN062 27/20 A2985 RMK
                 TCU5SC2 SLP107 DENSITY ALT 1900FT =
2018-07-22 19:00 METAR CYGK 221900Z 06009KT 15SM OVC040 25/20 A2984 RMK SC8 SLP105 DENSITY ALT
                 1700FT =
2018-07-22 18:00 METAR CYGK 221800Z 06011G17KT 15SM FEW020 BKN040 24/20 A2983 RMK CF1SC6 SLP101
                 DENSITY ALT 1600FT =
2018-07-22 17:42 METAR CYGK 221742Z 06009KT 10SM VCSH FEW020 BKN040 23/20 A2983 RMK CF2SC5 SLP103
                 DENSITY ALT 1500FT =
2018-07-22 17:00 METAR CYGK 221700Z 06014KT 6SM -RA FEW010 OVC034 23/19 A2982 RMK CF1SC7 SLP100
                 DENSITY ALT 1500FT =
2018-07-22 16:46 METAR CYGK 221646Z 06013G19KT 8SM -RA FEW010 OVC040 23/19 A2982 RMK CF1SC7
                 SLP097 DENSITY ALT 1500FT =
2018-07-22 16:00 METAR CYGK 221600Z 06013G19KT 15SM FEW030 OVC042 23/18 A2982 RMK CF2SC6 SLP098
                 DENSITY ALT 1500FT =
2018-07-22 15:00 METAR CYGK 221500Z 06017G24KT 15SM FEW010 BKN042 OVC100 22/18 A2982 RMK
                 CF1SC6AC1 SLP098 DENSITY ALT 1400FT =
2018-07-22 14:00 METAR CYGK 221400Z 06015G23KT 15SM FEW012 SCT040 BKN100 BKN250 22/18 A2982 RMK
                 CF2SC2AC1CI1 SLP098 DENSITY ALT 1400FT =
2018-07-22 13:00 METAR CYGK 221300Z 05016G22KT 15SM FEW012 SCT035 BKN100 BKN240 20/17 A2984 RMK
                 SF1SC2AC3CI1 SLP104 DENSITY ALT 1100FT =
2018-07-22 12:38 METAR CYGK 221238Z 05013G20KT 15SM FEW012 FEW040 BKN130 BKN250 18/17 A2984 RMK
                 SF1SC1AC3CI2 SLP107 DENSITY ALT 900FT =
2018-07-22 12:00 METAR CYGK 221200Z 04016G22KT 8SM -RA FEW012 SCT040 BKN080 BKN160 17/17 A2985
                 RMK SF2CU1AC3AC1 SLP108 DENSITY ALT 800FT =
2018-07-22 11:40 METAR CYGK 221140Z 04015KT 8SM -RA SCT012 SCT036 OVC060 17/16 A2985 RMK
                 SF3CU1SC4 SLP110 DENSITY ALT 700FT =

Support USWX by starting your Amazon purchase here.